createdAt,value
2018-11-20T00:00:42.291Z,100745.85
2018-11-20T00:03:32.328Z,100745.12
2018-11-20T00:06:13.444Z,100739.27
2018-11-20T00:09:01.652Z,100744.00
2018-11-20T00:11:50.428Z,100743.73
2018-11-20T00:14:47.884Z,100744.25
2018-11-20T00:17:36.347Z,100738.65
2018-11-20T00:20:37.412Z,100733.96
2018-11-20T00:23:30.154Z,100733.53
2018-11-20T00:26:16.130Z,100727.20
2018-11-20T00:29:11.112Z,100716.09
2018-11-20T00:32:09.173Z,100724.23
2018-11-20T00:34:58.561Z,100716.95
2018-11-20T00:37:45.972Z,100720.08
2018-11-20T00:40:50.161Z,100710.98
2018-11-20T00:43:54.568Z,100709.17
2018-11-20T00:46:51.780Z,100706.72
2018-11-20T00:49:41.279Z,100699.48
2018-11-20T00:52:36.097Z,100696.12
2018-11-20T00:56:02.987Z,100703.36
2018-11-20T00:58:53.539Z,100694.01
2018-11-20T01:01:41.054Z,100697.99
2018-11-20T01:04:48.046Z,100694.52
2018-11-20T01:07:43.322Z,100700.81
2018-11-20T01:10:31.498Z,100691.89
2018-11-20T01:13:10.438Z,100689.32
2018-11-20T01:16:17.228Z,100684.09
2018-11-20T01:19:09.796Z,100682.36
2018-11-20T01:22:31.910Z,100689.17
2018-11-20T01:28:03.448Z,100675.02
2018-11-20T01:28:11.072Z,100668.95
2018-11-20T01:31:43.826Z,100660.39
2018-11-20T01:36:02.036Z,100658.77
2018-11-20T01:39:50.448Z,100641.21
2018-11-20T01:42:37.913Z,100637.53
2018-11-20T01:50:33.136Z,100633.35
2018-11-20T01:55:21.376Z,100632.80
2018-11-20T01:56:39.190Z,100620.84
2018-11-20T02:02:14.856Z,100609.58
2018-11-20T02:04:02.962Z,100601.79
2018-11-20T02:08:54.289Z,100595.63
2018-11-20T02:10:35.615Z,100591.77
2018-11-20T02:14:21.016Z,100583.60
2018-11-20T02:21:43.017Z,100573.32
2018-11-20T02:25:39.791Z,100572.52
2018-11-20T02:29:40.333Z,100574.91
2018-11-20T02:43:01.356Z,100554.25
2018-11-20T02:46:08.201Z,100539.16
2018-11-20T02:49:21.392Z,100547.89
2018-11-20T03:00:41.575Z,100529.92
2018-11-20T03:04:34.812Z,100513.91
2018-11-20T03:16:25.930Z,100516.97
2018-11-20T03:26:40.551Z,100508.41
2018-11-20T03:30:43.891Z,100509.49
2018-11-20T03:37:17.871Z,100499.55
2018-11-20T03:48:32.017Z,100478.73
2018-11-20T03:51:12.622Z,100479.54
2018-11-20T03:54:40.749Z,100495.35
2018-11-20T04:08:17.936Z,100473.74
2018-11-20T04:11:59.945Z,100470.66
2018-11-20T04:18:39.761Z,100471.30
2018-11-20T04:22:13.293Z,100460.82
2018-11-20T04:30:51.002Z,100448.24
2018-11-20T04:34:52.646Z,100439.25
2018-11-20T04:38:41.457Z,100424.14
2018-11-20T04:48:18.985Z,100417.99
2018-11-20T04:55:18.205Z,100402.02
2018-11-20T05:02:23.467Z,100401.21
2018-11-20T05:21:00.789Z,100396.42
2018-11-20T05:28:44.276Z,100391.62
2018-11-20T05:35:22.114Z,100396.47
2018-11-20T05:42:20.275Z,100397.33
2018-11-20T05:46:21.913Z,100400.59
2018-11-20T05:49:02.742Z,100404.59
2018-11-20T05:52:40.243Z,100397.38
2018-11-20T05:56:02.753Z,100397.33
2018-11-20T06:02:19.523Z,100389.58
2018-11-20T06:09:07.723Z,100396.84
2018-11-20T06:12:32.182Z,100392.06
2018-11-20T06:16:55.540Z,100385.09
2018-11-20T06:19:47.441Z,100396.36
2018-11-20T06:23:03.513Z,100388.11
2018-11-20T06:34:04.800Z,100386.84
2018-11-20T06:37:42.576Z,100378.70
2018-11-20T06:41:17.262Z,100382.70
2018-11-20T06:44:13.930Z,100373.66
2018-11-20T06:47:45.941Z,100380.68
2018-11-20T06:51:18.919Z,100383.99
2018-11-20T06:54:19.600Z,100386.69
2018-11-20T06:59:00.394Z,100392.28
2018-11-20T07:02:21.229Z,100393.45
2018-11-20T07:03:34.715Z,100387.45
2018-11-20T07:06:29.202Z,100386.16
2018-11-20T07:09:23.261Z,100385.70
2018-11-20T07:12:21.069Z,100373.54
2018-11-20T07:15:12.524Z,100373.66
2018-11-20T07:17:59.524Z,100379.64
2018-11-20T07:21:01.727Z,100371.28
2018-11-20T07:23:40.170Z,100379.14
2018-11-20T07:26:41.285Z,100372.57
2018-11-20T07:29:44.732Z,100364.52
2018-11-20T07:32:46.974Z,100363.71
2018-11-20T07:35:41.285Z,100366.73
2018-11-20T07:38:38.945Z,100364.08
2018-11-20T07:41:31.026Z,100359.90
2018-11-20T07:44:18.243Z,100373.17
2018-11-20T07:47:02.030Z,100364.03
2018-11-20T07:49:47.846Z,100354.98
2018-11-20T07:52:45.003Z,100349.02
2018-11-20T07:55:31.806Z,100338.63
2018-11-20T07:58:21.619Z,100339.06
2018-11-20T08:01:09.651Z,100337.45
2018-11-20T08:03:57.692Z,100344.58
2018-11-20T08:06:49.565Z,100342.55
2018-11-20T08:09:43.978Z,100344.58
2018-11-20T08:12:38.370Z,100344.59
2018-11-20T08:15:30.101Z,100350.11
2018-11-20T08:18:12.953Z,100353.57
2018-11-20T08:21:04.701Z,100353.25
2018-11-20T08:24:07.278Z,100354.55
2018-11-20T08:26:55.480Z,100358.91
2018-11-20T08:29:52.209Z,100362.43
2018-11-20T08:32:43.795Z,100351.83
2018-11-20T08:35:23.620Z,100354.73
2018-11-20T08:38:11.972Z,100356.02
2018-11-20T08:41:03.899Z,100359.34
2018-11-20T08:43:58.320Z,100352.88
2018-11-20T08:46:42.778Z,100346.98
2018-11-20T08:49:30.448Z,100348.64
2018-11-20T08:52:19.070Z,100341.61
2018-11-20T08:55:16.615Z,100347.64
2018-11-20T08:57:58.257Z,100336.65
2018-11-20T09:00:45.372Z,100345.92
2018-11-20T09:03:45.871Z,100355.38
2018-11-20T09:06:28.501Z,100351.88
2018-11-20T09:09:25.773Z,100348.09
2018-11-20T09:12:11.948Z,100353.67
2018-11-20T09:15:13.983Z,100352.33
2018-11-20T09:17:57.501Z,100349.68
2018-11-20T09:20:51.852Z,100337.20
2018-11-20T09:23:41.341Z,100337.62
2018-11-20T09:26:26.304Z,100336.67
2018-11-20T09:29:10.717Z,100331.14
2018-11-20T09:32:03.460Z,100331.81
2018-11-20T09:35:08.398Z,100334.76
2018-11-20T09:37:55.239Z,100334.34
2018-11-20T09:41:30.258Z,100333.97
2018-11-20T09:45:08.627Z,100322.78
2018-11-20T09:48:03.415Z,100311.95
2018-11-20T09:50:51.106Z,100319.55
2018-11-20T09:53:38.194Z,100320.49
2018-11-20T09:56:35.246Z,100315.69
2018-11-20T09:59:23.048Z,100321.59
2018-11-20T10:02:30.930Z,100319.55
2018-11-20T10:05:22.673Z,100319.69
2018-11-20T10:08:16.113Z,100311.81
2018-11-20T10:11:06.476Z,100314.69
2018-11-20T10:13:53.912Z,100311.11
2018-11-20T10:16:51.391Z,100311.16
2018-11-20T10:19:32.734Z,100317.56
2018-11-20T10:22:20.039Z,100305.23
2018-11-20T10:25:05.750Z,100295.67
2018-11-20T10:27:57.602Z,100296.02
2018-11-20T10:30:44.583Z,100295.18
2018-11-20T10:33:50.158Z,100292.23
2018-11-20T10:36:38.787Z,100294.81
2018-11-20T10:39:31.095Z,100277.09
2018-11-20T10:42:20.610Z,100283.09
2018-11-20T10:45:11.729Z,100280.23
2018-11-20T10:47:59.367Z,100285.75
2018-11-20T10:50:47.584Z,100271.48
2018-11-20T10:53:44.873Z,100282.66
2018-11-20T10:56:32.358Z,100278.88
2018-11-20T10:59:41.535Z,100293.02
2018-11-20T11:02:28.627Z,100289.28
2018-11-20T11:05:18.834Z,100287.34
2018-11-20T11:08:07.617Z,100274.84
2018-11-20T11:10:54.500Z,100270.83
2018-11-20T11:13:41.873Z,100250.88
2018-11-20T11:16:41.514Z,100252.88
2018-11-20T11:19:36.973Z,100249.49
2018-11-20T11:22:29.997Z,100242.31
2018-11-20T11:25:32.828Z,100241.38
2018-11-20T11:28:20.721Z,100234.84
2018-11-20T11:31:10.360Z,100226.02
2018-11-20T11:34:01.483Z,100236.02
2018-11-20T11:36:49.042Z,100236.13
2018-11-20T11:39:38.284Z,100233.00
2018-11-20T11:42:17.711Z,100229.38
2018-11-20T11:45:11.353Z,100238.66
2018-11-20T11:49:34.470Z,100239.00
2018-11-20T11:55:20.428Z,100233.13
2018-11-20T11:58:52.792Z,100242.46
2018-11-20T12:12:39.014Z,100201.88
2018-11-20T12:15:23.076Z,100213.02
2018-11-20T12:18:45.561Z,100214.50
2018-11-20T12:32:55.103Z,100224.63
2018-11-20T12:36:56.075Z,100222.40
2018-11-20T12:41:07.383Z,100221.83
2018-11-20T12:44:20.206Z,100213.35
2018-11-20T12:47:18.072Z,100213.44
2018-11-20T12:54:52.308Z,100209.64
2018-11-20T13:02:46.708Z,100219.27
2018-11-20T13:05:37.296Z,100221.91
2018-11-20T13:09:49.687Z,100214.25
2018-11-20T13:12:49.694Z,100196.31
2018-11-20T13:16:42.933Z,100225.61
2018-11-20T13:19:57.421Z,100211.47
2018-11-20T13:49:32.314Z,100215.92
2018-11-20T13:52:23.633Z,100213.31
2018-11-20T14:02:02.432Z,100202.70
2018-11-20T14:04:49.601Z,100205.63
2018-11-20T14:07:54.632Z,100198.66
2018-11-20T14:10:46.052Z,100199.84
2018-11-20T14:13:38.035Z,100197.28
2018-11-20T14:16:28.864Z,100195.30
2018-11-20T14:19:19.854Z,100206.11
2018-11-20T14:22:03.422Z,100196.98
2018-11-20T14:24:56.971Z,100191.41
2018-11-20T14:27:55.810Z,100188.45
2018-11-20T14:30:46.378Z,100185.67
2018-11-20T14:33:42.837Z,100188.54
2018-11-20T14:36:37.193Z,100192.47
2018-11-20T14:39:15.365Z,100185.18
2018-11-20T14:41:54.334Z,100191.00
2018-11-20T14:44:48.842Z,100178.22
2018-11-20T14:47:42.365Z,100170.98
2018-11-20T14:50:31.655Z,100163.43
2018-11-20T14:58:33.863Z,100162.59
2018-11-20T15:06:42.141Z,100163.03
2018-11-20T15:14:51.213Z,100170.39
2018-11-20T15:22:29.154Z,100166.15
2018-11-20T15:44:11.694Z,100183.87
2018-11-20T15:47:01.023Z,100186.88
2018-11-20T15:49:50.841Z,100196.81
2018-11-20T15:52:31.514Z,100197.46
2018-11-20T15:55:32.078Z,100205.67
2018-11-20T15:58:20.463Z,100210.78
2018-11-20T16:01:23.216Z,100208.58
2018-11-20T16:04:07.148Z,100208.30
2018-11-20T16:06:54.469Z,100207.88
2018-11-20T16:09:51.546Z,100217.80
2018-11-20T16:12:47.688Z,100225.69
2018-11-20T16:15:34.822Z,100223.20
2018-11-20T16:18:24.071Z,100224.17
2018-11-20T16:21:28.406Z,100226.75
2018-11-20T16:24:16.320Z,100227.18
2018-11-20T16:27:03.793Z,100231.09
2018-11-20T16:30:01.807Z,100230.28
2018-11-20T16:32:48.138Z,100228.56
2018-11-20T16:35:36.569Z,100230.66
2018-11-20T16:38:23.985Z,100225.07
2018-11-20T16:41:14.085Z,100226.27
2018-11-20T16:44:02.877Z,100227.55
2018-11-20T16:47:06.813Z,100227.93
2018-11-20T16:50:01.156Z,100227.17
2018-11-20T16:52:52.289Z,100216.87
2018-11-20T16:55:28.740Z,100218.49
2018-11-20T16:58:16.177Z,100214.14
2018-11-20T17:00:57.587Z,100218.88
2018-11-20T17:03:51.776Z,100221.82
2018-11-20T17:06:34.019Z,100211.14
2018-11-20T17:09:21.043Z,100222.24
2018-11-20T17:12:24.473Z,100231.17
2018-11-20T17:15:11.489Z,100224.34
2018-11-20T17:18:06.289Z,100235.94
2018-11-20T17:21:14.350Z,100240.89
2018-11-20T17:24:03.689Z,100229.78
2018-11-20T17:26:48.978Z,100229.82
2018-11-20T17:29:37.403Z,100232.41
2018-11-20T17:32:22.580Z,100235.73
2018-11-20T17:35:12.534Z,100229.30
2018-11-20T17:37:51.758Z,100222.80
2018-11-20T17:40:39.145Z,100219.31
2018-11-20T17:43:26.645Z,100217.96
2018-11-20T17:46:06.119Z,100209.81
2018-11-20T17:48:57.885Z,100211.09
2018-11-20T17:51:47.741Z,100202.56
2018-11-20T17:54:34.694Z,100202.89
2018-11-20T17:57:26.172Z,100199.99
2018-11-20T18:00:27.763Z,100200.20
2018-11-20T18:03:06.115Z,100196.87
2018-11-20T18:06:13.236Z,100182.73
2018-11-20T18:09:13.978Z,100183.05
2018-11-20T18:12:14.298Z,100175.76
2018-11-20T18:15:20.985Z,100178.45
2018-11-20T18:18:08.570Z,100188.88
2018-11-20T18:20:56.058Z,100202.45
2018-11-20T18:26:21.010Z,100229.45
2018-11-20T18:29:07.914Z,100230.20
2018-11-20T18:31:56.374Z,100240.39
2018-11-20T18:34:46.640Z,100244.70
2018-11-20T18:37:35.699Z,100254.95
2018-11-20T18:40:41.319Z,100255.77
2018-11-20T18:43:37.284Z,100250.94
2018-11-20T18:46:25.382Z,100250.81
2018-11-20T18:49:12.640Z,100244.80
2018-11-20T18:52:16.998Z,100240.08
2018-11-20T18:55:11.646Z,100231.92
2018-11-20T18:58:11.895Z,100230.50
2018-11-20T19:01:18.281Z,100225.83
2018-11-20T19:04:26.231Z,100224.42
2018-11-20T19:07:14.761Z,100215.89
2018-11-20T19:10:01.708Z,100203.25
2018-11-20T19:13:02.460Z,100179.13
2018-11-20T19:15:51.200Z,100174.02
2018-11-20T19:18:43.925Z,100175.87
2018-11-20T19:21:38.106Z,100172.01
2018-11-20T19:24:32.491Z,100178.83
2018-11-20T19:27:23.840Z,100171.70
2018-11-20T19:30:17.155Z,100180.65
2018-11-20T19:33:17.895Z,100179.42
2018-11-20T19:35:58.754Z,100185.97
2018-11-20T19:38:46.176Z,100199.69
2018-11-20T19:41:33.003Z,100215.52
2018-11-20T19:44:40.159Z,100223.27
2018-11-20T19:47:27.398Z,100230.56
2018-11-20T19:50:22.138Z,100256.45
2018-11-20T19:53:08.198Z,100258.66
2018-11-20T19:56:08.889Z,100257.25
2018-11-20T19:58:59.782Z,100261.81
2018-11-20T20:02:06.189Z,100266.61
2018-11-20T20:05:03.893Z,100260.95
2018-11-20T20:07:54.811Z,100262.56
2018-11-20T20:10:48.662Z,100261.27
2018-11-20T20:13:37.310Z,100269.87
2018-11-20T20:16:35.425Z,100273.36
2018-11-20T20:19:20.904Z,100271.59
2018-11-20T20:22:08.934Z,100283.20
2018-11-20T20:25:09.484Z,100275.35
2018-11-20T20:28:04.544Z,100287.33
2018-11-20T20:30:46.176Z,100288.61
2018-11-20T20:33:34.749Z,100293.72
2018-11-20T20:36:22.141Z,100297.11
2018-11-20T20:39:13.477Z,100294.47
2018-11-20T20:42:01.009Z,100302.21
2018-11-20T20:44:58.574Z,100320.31
2018-11-20T20:47:56.398Z,100324.66
2018-11-20T20:50:57.580Z,100324.67
2018-11-20T20:53:59.585Z,100327.16
2018-11-20T20:56:56.138Z,100311.77
2018-11-20T20:59:40.869Z,100325.86
2018-11-20T21:02:35.218Z,100348.63
2018-11-20T21:05:34.716Z,100334.82
2018-11-20T21:08:30.761Z,100321.56
2018-11-20T21:11:35.171Z,100317.04
2018-11-20T21:14:22.947Z,100320.38
2018-11-20T21:17:12.013Z,100306.30
2018-11-20T21:20:17.182Z,100319.78
2018-11-20T21:23:19.113Z,100313.02
2018-11-20T21:26:06.769Z,100320.80
2018-11-20T21:28:41.905Z,100328.10
2018-11-20T21:31:39.656Z,100333.37
2018-11-20T21:34:30.912Z,100331.33
2018-11-20T21:37:34.514Z,100332.66
2018-11-20T21:40:41.824Z,100332.24
2018-11-20T21:43:30.791Z,100326.86
2018-11-20T21:46:18.199Z,100333.83
2018-11-20T21:49:24.788Z,100329.63
2018-11-20T21:52:23.737Z,100314.27
2018-11-20T21:55:14.895Z,100335.78
2018-11-20T21:57:59.528Z,100349.58
2018-11-20T22:01:22.051Z,100352.55
2018-11-20T22:04:16.151Z,100355.25
2018-11-20T22:07:06.396Z,100353.11
2018-11-20T22:09:52.917Z,100361.84
2018-11-20T22:12:39.973Z,100373.04
2018-11-20T22:15:27.190Z,100392.41
2018-11-20T22:18:15.614Z,100399.27
2018-11-20T22:21:20.003Z,100409.53
2018-11-20T22:24:17.664Z,100406.57
2018-11-20T22:27:05.262Z,100403.64
2018-11-20T22:29:50.910Z,100406.30
2018-11-20T22:33:00.750Z,100419.95
2018-11-20T22:35:48.323Z,100418.66
2018-11-20T22:38:32.114Z,100410.16
2018-11-20T22:41:18.082Z,100419.56
2018-11-20T22:44:07.307Z,100420.42
2018-11-20T22:46:54.518Z,100426.05
2018-11-20T22:49:38.099Z,100431.19
2018-11-20T22:52:38.541Z,100434.63
2018-11-20T22:55:26.479Z,100430.73
2018-11-20T22:58:30.162Z,100422.61
2018-11-20T23:01:17.640Z,100427.34
2018-11-20T23:04:04.745Z,100422.65
2018-11-20T23:06:53.395Z,100422.73
2018-11-20T23:09:23.034Z,100428.73
2018-11-20T23:11:52.491Z,100434.78
2018-11-20T23:14:22.271Z,100435.64
2018-11-20T23:16:55.262Z,100433.92
2018-11-20T23:19:25.373Z,100432.60
2018-11-20T23:21:55.363Z,100436.50
2018-11-20T23:24:25.093Z,100438.69
2018-11-20T23:26:54.698Z,100436.55
2018-11-20T23:29:24.098Z,100443.02
2018-11-20T23:31:54.205Z,100441.69
2018-11-20T23:34:23.991Z,100433.07
2018-11-20T23:36:53.984Z,100431.00
2018-11-20T23:39:23.383Z,100446.45
2018-11-20T23:41:52.799Z,100458.03
2018-11-20T23:44:23.661Z,100447.31
2018-11-20T23:46:58.377Z,100442.94
2018-11-20T23:49:28.175Z,100444.66
2018-11-20T23:51:57.573Z,100444.37
2018-11-20T23:54:26.953Z,100446.95
2018-11-20T23:56:56.367Z,100450.38
2018-11-20T23:59:27.977Z,100446.95
